sensor_id;sensor_type;location;lat;lon;timestamp;temperature;humidity
11812;DHT22;5963;50.184;9.162;2022-10-28T00:01:19;13.90;99.90
11812;DHT22;5963;50.184;9.162;2022-10-28T00:03:50;13.80;99.90
11812;DHT22;5963;50.184;9.162;2022-10-28T00:06:21;13.80;99.90
11812;DHT22;5963;50.184;9.162;2022-10-28T00:08:49;13.90;99.90
11812;DHT22;5963;50.184;9.162;2022-10-28T00:11:19;13.90;99.90
11812;DHT22;5963;50.184;9.162;2022-10-28T00:13:48;13.90;99.90
11812;DHT22;5963;50.184;9.162;2022-10-28T00:16:18;13.90;99.90
11812;DHT22;5963;50.184;9.162;2022-10-28T00:18:48;13.90;99.90
11812;DHT22;5963;50.184;9.162;2022-10-28T00:21:22;13.90;99.90
11812;DHT22;5963;50.184;9.162;2022-10-28T00:23:51;13.90;99.90
11812;DHT22;5963;50.184;9.162;2022-10-28T00:26:21;13.90;99.90
11812;DHT22;5963;50.184;9.162;2022-10-28T00:28:51;13.90;99.90
11812;DHT22;5963;50.184;9.162;2022-10-28T00:31:21;13.80;99.90
11812;DHT22;5963;50.184;9.162;2022-10-28T00:33:51;13.80;99.90
11812;DHT22;5963;50.184;9.162;2022-10-28T00:36:25;13.80;99.90
11812;DHT22;5963;50.184;9.162;2022-10-28T00:38:54;13.90;99.90
11812;DHT22;5963;50.184;9.162;2022-10-28T00:41:25;13.80;99.90
11812;DHT22;5963;50.184;9.162;2022-10-28T00:43:55;13.80;99.90
11812;DHT22;5963;50.184;9.162;2022-10-28T00:46:27;13.80;99.90
11812;DHT22;5963;50.184;9.162;2022-10-28T00:49:00;13.70;99.90
11812;DHT22;5963;50.184;9.162;2022-10-28T00:51:32;13.70;99.90
11812;DHT22;5963;50.184;9.162;2022-10-28T00:54:03;13.70;99.90
11812;DHT22;5963;50.184;9.162;2022-10-28T00:56:36;13.70;99.90
11812;DHT22;5963;50.184;9.162;2022-10-28T00:59:09;13.70;99.90
11812;DHT22;5963;50.184;9.162;2022-10-28T01:01:38;13.80;99.90
11812;DHT22;5963;50.184;9.162;2022-10-28T01:04:07;13.80;99.90
11812;DHT22;5963;50.184;9.162;2022-10-28T01:06:37;13.80;99.90
11812;DHT22;5963;50.184;9.162;2022-10-28T01:09:06;13.80;99.90
11812;DHT22;5963;50.184;9.162;2022-10-28T01:11:48;13.80;99.90
11812;DHT22;5963;50.184;9.162;2022-10-28T01:14:36;13.80;99.90
11812;DHT22;5963;50.184;9.162;2022-10-28T01:17:16;13.80;99.90
11812;DHT22;5963;50.184;9.162;2022-10-28T01:20:17;13.80;99.90
11812;DHT22;5963;50.184;9.162;2022-10-28T01:22:52;13.80;99.90
11812;DHT22;5963;50.184;9.162;2022-10-28T01:25:53;13.80;99.90
11812;DHT22;5963;50.184;9.162;2022-10-28T01:31:34;13.80;99.90
11812;DHT22;5963;50.184;9.162;2022-10-28T01:34:09;13.80;99.90
11812;DHT22;5963;50.184;9.162;2022-10-28T01:36:47;13.70;99.90
11812;DHT22;5963;50.184;9.162;2022-10-28T01:39:26;13.70;99.90
11812;DHT22;5963;50.184;9.162;2022-10-28T01:42:01;13.70;99.90
11812;DHT22;5963;50.184;9.162;2022-10-28T01:44:38;13.70;99.90
11812;DHT22;5963;50.184;9.162;2022-10-28T01:47:12;13.70;99.90
11812;DHT22;5963;50.184;9.162;2022-10-28T01:49:47;13.70;99.90
11812;DHT22;5963;50.184;9.162;2022-10-28T01:52:19;13.70;99.90
11812;DHT22;5963;50.184;9.162;2022-10-28T01:54:54;13.70;99.90
11812;DHT22;5963;50.184;9.162;2022-10-28T01:57:24;13.70;99.90
11812;DHT22;5963;50.184;9.162;2022-10-28T01:59:55;13.70;99.90
11812;DHT22;5963;50.184;9.162;2022-10-28T02:02:25;13.70;99.90
11812;DHT22;5963;50.184;9.162;2022-10-28T02:05:03;13.70;99.90
11812;DHT22;5963;50.184;9.162;2022-10-28T02:07:32;13.60;99.90
11812;DHT22;5963;50.184;9.162;2022-10-28T02:10:05;13.60;99.90
11812;DHT22;5963;50.184;9.162;2022-10-28T02:12:40;13.70;99.90
11812;DHT22;5963;50.184;9.162;2022-10-28T02:15:29;13.70;99.90
11812;DHT22;5963;50.184;9.162;2022-10-28T02:18:11;13.80;99.90
11812;DHT22;5963;50.184;9.162;2022-10-28T02:20:47;13.80;99.90
11812;DHT22;5963;50.184;9.162;2022-10-28T02:23:24;13.80;99.90
11812;DHT22;5963;50.184;9.162;2022-10-28T02:25:57;13.90;99.90
11812;DHT22;5963;50.184;9.162;2022-10-28T02:28:35;13.90;99.90
11812;DHT22;5963;50.184;9.162;2022-10-28T02:31:08;13.80;99.90
11812;DHT22;5963;50.184;9.162;2022-10-28T02:33:40;13.80;99.90
11812;DHT22;5963;50.184;9.162;2022-10-28T02:36:11;13.90;99.90
11812;DHT22;5963;50.184;9.162;2022-10-28T02:38:43;13.90;99.90
11812;DHT22;5963;50.184;9.162;2022-10-28T02:41:16;13.90;99.90
11812;DHT22;5963;50.184;9.162;2022-10-28T02:43:49;14.00;99.90
11812;DHT22;5963;50.184;9.162;2022-10-28T02:46:20;13.90;99.90
11812;DHT22;5963;50.184;9.162;2022-10-28T02:48:52;13.90;99.90
11812;DHT22;5963;50.184;9.162;2022-10-28T02:51:25;13.90;99.90
11812;DHT22;5963;50.184;9.162;2022-10-28T02:54:00;13.90;99.90
11812;DHT22;5963;50.184;9.162;2022-10-28T02:56:32;13.80;99.90
11812;DHT22;5963;50.184;9.162;2022-10-28T02:59:02;13.80;99.90
11812;DHT22;5963;50.184;9.162;2022-10-28T03:01:30;13.80;99.90
11812;DHT22;5963;50.184;9.162;2022-10-28T03:04:00;13.80;99.90
11812;DHT22;5963;50.184;9.162;2022-10-28T03:06:28;13.80;99.90
11812;DHT22;5963;50.184;9.162;2022-10-28T03:08:57;13.80;99.90
11812;DHT22;5963;50.184;9.162;2022-10-28T03:11:25;13.90;99.90
11812;DHT22;5963;50.184;9.162;2022-10-28T03:13:53;13.90;99.90
11812;DHT22;5963;50.184;9.162;2022-10-28T03:16:21;13.90;99.90
11812;DHT22;5963;50.184;9.162;2022-10-28T03:18:49;13.80;99.90
11812;DHT22;5963;50.184;9.162;2022-10-28T03:21:22;13.90;99.90
11812;DHT22;5963;50.184;9.162;2022-10-28T03:23:50;14.00;99.90
11812;DHT22;5963;50.184;9.162;2022-10-28T03:26:18;14.10;99.90
11812;DHT22;5963;50.184;9.162;2022-10-28T03:28:46;13.90;99.90
11812;DHT22;5963;50.184;9.162;2022-10-28T03:31:16;13.80;99.90
11812;DHT22;5963;50.184;9.162;2022-10-28T03:33:44;13.80;99.90
11812;DHT22;5963;50.184;9.162;2022-10-28T03:36:12;13.90;99.90
11812;DHT22;5963;50.184;9.162;2022-10-28T03:38:42;13.90;99.90
11812;DHT22;5963;50.184;9.162;2022-10-28T03:41:10;13.90;99.90
11812;DHT22;5963;50.184;9.162;2022-10-28T03:43:38;14.00;99.90
11812;DHT22;5963;50.184;9.162;2022-10-28T03:46:06;13.90;99.90
11812;DHT22;5963;50.184;9.162;2022-10-28T03:48:34;13.80;99.90
11812;DHT22;5963;50.184;9.162;2022-10-28T03:51:02;13.80;99.90
11812;DHT22;5963;50.184;9.162;2022-10-28T03:53:31;13.80;99.90
11812;DHT22;5963;50.184;9.162;2022-10-28T03:56:01;13.90;99.90
11812;DHT22;5963;50.184;9.162;2022-10-28T03:58:30;13.80;99.90
11812;DHT22;5963;50.184;9.162;2022-10-28T04:01:03;13.80;99.90
11812;DHT22;5963;50.184;9.162;2022-10-28T04:03:31;13.90;99.90
11812;DHT22;5963;50.184;9.162;2022-10-28T04:06:00;13.90;99.90
11812;DHT22;5963;50.184;9.162;2022-10-28T04:08:28;14.00;99.90
11812;DHT22;5963;50.184;9.162;2022-10-28T04:10:56;14.00;99.90
11812;DHT22;5963;50.184;9.162;2022-10-28T04:13:26;14.00;99.90
11812;DHT22;5963;50.184;9.162;2022-10-28T04:15:54;14.00;99.90
11812;DHT22;5963;50.184;9.162;2022-10-28T04:18:22;14.10;99.90
11812;DHT22;5963;50.184;9.162;2022-10-28T04:20:50;14.10;99.90
11812;DHT22;5963;50.184;9.162;2022-10-28T04:23:19;14.10;99.90
11812;DHT22;5963;50.184;9.162;2022-10-28T04:25:51;14.20;99.90
11812;DHT22;5963;50.184;9.162;2022-10-28T04:28:22;14.10;99.90
11812;DHT22;5963;50.184;9.162;2022-10-28T04:30:52;14.10;99.90
11812;DHT22;5963;50.184;9.162;2022-10-28T04:33:20;14.00;99.90
11812;DHT22;5963;50.184;9.162;2022-10-28T04:35:48;14.00;99.90
11812;DHT22;5963;50.184;9.162;2022-10-28T04:38:17;14.00;99.90
11812;DHT22;5963;50.184;9.162;2022-10-28T04:40:46;14.00;99.90
11812;DHT22;5963;50.184;9.162;2022-10-28T04:43:15;14.00;99.90
11812;DHT22;5963;50.184;9.162;2022-10-28T04:45:44;14.00;99.90
11812;DHT22;5963;50.184;9.162;2022-10-28T04:48:14;13.90;99.90
11812;DHT22;5963;50.184;9.162;2022-10-28T04:50:42;13.90;99.90
11812;DHT22;5963;50.184;9.162;2022-10-28T04:53:14;13.90;99.90
11812;DHT22;5963;50.184;9.162;2022-10-28T04:55:42;13.90;99.90
11812;DHT22;5963;50.184;9.162;2022-10-28T04:58:11;13.90;99.90
11812;DHT22;5963;50.184;9.162;2022-10-28T05:00:39;13.80;99.90
11812;DHT22;5963;50.184;9.162;2022-10-28T05:03:07;13.70;99.90
11812;DHT22;5963;50.184;9.162;2022-10-28T05:05:37;13.60;99.90
11812;DHT22;5963;50.184;9.162;2022-10-28T05:08:06;13.60;99.90
11812;DHT22;5963;50.184;9.162;2022-10-28T05:10:34;13.60;99.90
11812;DHT22;5963;50.184;9.162;2022-10-28T05:13:02;13.50;99.90
11812;DHT22;5963;50.184;9.162;2022-10-28T05:15:33;13.50;99.90
11812;DHT22;5963;50.184;9.162;2022-10-28T05:18:01;13.50;99.90
11812;DHT22;5963;50.184;9.162;2022-10-28T05:20:29;13.50;99.90
11812;DHT22;5963;50.184;9.162;2022-10-28T05:22:59;13.50;99.90
11812;DHT22;5963;50.184;9.162;2022-10-28T05:25:27;13.50;99.90
11812;DHT22;5963;50.184;9.162;2022-10-28T05:27:57;13.60;99.90
11812;DHT22;5963;50.184;9.162;2022-10-28T05:30:26;13.60;99.90
11812;DHT22;5963;50.184;9.162;2022-10-28T05:32:58;13.60;99.90
11812;DHT22;5963;50.184;9.162;2022-10-28T05:35:28;13.60;99.90
11812;DHT22;5963;50.184;9.162;2022-10-28T05:37:57;13.60;99.90
11812;DHT22;5963;50.184;9.162;2022-10-28T05:40:28;13.60;99.90
11812;DHT22;5963;50.184;9.162;2022-10-28T05:42:58;13.60;99.90
11812;DHT22;5963;50.184;9.162;2022-10-28T05:45:26;13.60;99.90
11812;DHT22;5963;50.184;9.162;2022-10-28T05:47:55;13.70;99.90
11812;DHT22;5963;50.184;9.162;2022-10-28T05:50:23;13.60;99.90
11812;DHT22;5963;50.184;9.162;2022-10-28T05:52:53;13.50;99.90
11812;DHT22;5963;50.184;9.162;2022-10-28T05:55:25;13.40;99.90
11812;DHT22;5963;50.184;9.162;2022-10-28T05:57:54;13.30;99.90
11812;DHT22;5963;50.184;9.162;2022-10-28T06:00:25;13.30;99.90
11812;DHT22;5963;50.184;9.162;2022-10-28T06:03:01;13.30;99.90
11812;DHT22;5963;50.184;9.162;2022-10-28T06:05:29;13.20;99.90
11812;DHT22;5963;50.184;9.162;2022-10-28T06:07:57;13.20;99.90
11812;DHT22;5963;50.184;9.162;2022-10-28T06:10:27;13.10;99.90
11812;DHT22;5963;50.184;9.162;2022-10-28T06:12:56;13.10;99.90
11812;DHT22;5963;50.184;9.162;2022-10-28T06:15:24;13.00;99.90
11812;DHT22;5963;50.184;9.162;2022-10-28T06:17:53;13.00;99.90
11812;DHT22;5963;50.184;9.162;2022-10-28T06:20:20;12.90;99.90
11812;DHT22;5963;50.184;9.162;2022-10-28T06:22:49;13.00;99.90
11812;DHT22;5963;50.184;9.162;2022-10-28T06:25:19;13.00;99.90
11812;DHT22;5963;50.184;9.162;2022-10-28T06:27:53;13.10;99.90
11812;DHT22;5963;50.184;9.162;2022-10-28T06:30:22;13.20;99.90
11812;DHT22;5963;50.184;9.162;2022-10-28T06:32:51;13.30;99.90
11812;DHT22;5963;50.184;9.162;2022-10-28T06:35:19;13.40;99.90
11812;DHT22;5963;50.184;9.162;2022-10-28T06:37:47;13.40;99.90
11812;DHT22;5963;50.184;9.162;2022-10-28T06:40:15;13.40;99.90
11812;DHT22;5963;50.184;9.162;2022-10-28T06:42:44;13.40;99.90
11812;DHT22;5963;50.184;9.162;2022-10-28T06:45:13;13.40;99.90
11812;DHT22;5963;50.184;9.162;2022-10-28T06:47:42;13.50;99.90
11812;DHT22;5963;50.184;9.162;2022-10-28T06:50:10;13.50;99.90
11812;DHT22;5963;50.184;9.162;2022-10-28T06:52:38;13.60;99.90
11812;DHT22;5963;50.184;9.162;2022-10-28T06:55:07;13.60;99.90
11812;DHT22;5963;50.184;9.162;2022-10-28T06:57:35;13.70;99.90
11812;DHT22;5963;50.184;9.162;2022-10-28T07:00:04;13.70;99.90
11812;DHT22;5963;50.184;9.162;2022-10-28T07:02:34;13.70;99.90
11812;DHT22;5963;50.184;9.162;2022-10-28T07:05:07;13.80;99.90
11812;DHT22;5963;50.184;9.162;2022-10-28T07:07:35;13.90;99.90
11812;DHT22;5963;50.184;9.162;2022-10-28T07:10:04;14.00;99.90
11812;DHT22;5963;50.184;9.162;2022-10-28T07:12:32;14.20;99.90
11812;DHT22;5963;50.184;9.162;2022-10-28T07:15:00;14.40;99.90
11812;DHT22;5963;50.184;9.162;2022-10-28T07:17:28;14.40;99.90
11812;DHT22;5963;50.184;9.162;2022-10-28T07:19:58;14.50;99.90
11812;DHT22;5963;50.184;9.162;2022-10-28T07:22:26;14.50;99.90
11812;DHT22;5963;50.184;9.162;2022-10-28T07:24:54;14.40;99.90
11812;DHT22;5963;50.184;9.162;2022-10-28T07:27:23;14.50;99.90
11812;DHT22;5963;50.184;9.162;2022-10-28T07:29:51;14.50;99.90
11812;DHT22;5963;50.184;9.162;2022-10-28T07:32:19;14.50;99.90
11812;DHT22;5963;50.184;9.162;2022-10-28T07:34:47;14.60;99.90
11812;DHT22;5963;50.184;9.162;2022-10-28T07:37:17;14.70;99.90
11812;DHT22;5963;50.184;9.162;2022-10-28T07:39:48;14.70;99.90
11812;DHT22;5963;50.184;9.162;2022-10-28T07:42:16;14.70;99.90
11812;DHT22;5963;50.184;9.162;2022-10-28T07:44:44;14.80;99.90
11812;DHT22;5963;50.184;9.162;2022-10-28T07:47:12;14.90;99.90
11812;DHT22;5963;50.184;9.162;2022-10-28T07:49:41;15.00;99.90
11812;DHT22;5963;50.184;9.162;2022-10-28T07:52:09;15.10;99.90
11812;DHT22;5963;50.184;9.162;2022-10-28T07:54:39;15.10;99.90
11812;DHT22;5963;50.184;9.162;2022-10-28T07:57:08;15.20;99.90
11812;DHT22;5963;50.184;9.162;2022-10-28T07:59:36;15.40;99.90
11812;DHT22;5963;50.184;9.162;2022-10-28T08:02:05;15.50;99.90
11812;DHT22;5963;50.184;9.162;2022-10-28T08:04:33;15.70;99.90
11812;DHT22;5963;50.184;9.162;2022-10-28T08:07:01;15.70;99.90
11812;DHT22;5963;50.184;9.162;2022-10-28T08:09:30;15.70;99.90
11812;DHT22;5963;50.184;9.162;2022-10-28T08:12:00;15.70;99.90
11812;DHT22;5963;50.184;9.162;2022-10-28T08:14:28;15.60;99.90
11812;DHT22;5963;50.184;9.162;2022-10-28T08:16:56;15.60;99.90
11812;DHT22;5963;50.184;9.162;2022-10-28T08:19:25;15.50;99.90
11812;DHT22;5963;50.184;9.162;2022-10-28T08:21:53;15.50;99.90
11812;DHT22;5963;50.184;9.162;2022-10-28T08:24:21;15.70;99.90
11812;DHT22;5963;50.184;9.162;2022-10-28T08:26:50;15.80;99.90
11812;DHT22;5963;50.184;9.162;2022-10-28T08:29:20;16.00;99.90
11812;DHT22;5963;50.184;9.162;2022-10-28T08:31:54;16.10;99.90
11812;DHT22;5963;50.184;9.162;2022-10-28T08:34:23;16.30;99.90
11812;DHT22;5963;50.184;9.162;2022-10-28T08:36:56;16.50;99.90
11812;DHT22;5963;50.184;9.162;2022-10-28T08:39:25;16.80;99.90
11812;DHT22;5963;50.184;9.162;2022-10-28T08:42:03;16.90;99.90
11812;DHT22;5963;50.184;9.162;2022-10-28T08:44:55;17.00;99.90
11812;DHT22;5963;50.184;9.162;2022-10-28T08:47:38;17.10;99.90
11812;DHT22;5963;50.184;9.162;2022-10-28T08:50:12;17.10;99.90
11812;DHT22;5963;50.184;9.162;2022-10-28T08:52:45;17.20;99.90
11812;DHT22;5963;50.184;9.162;2022-10-28T08:55:21;17.10;99.90
11812;DHT22;5963;50.184;9.162;2022-10-28T08:57:53;17.20;99.90
11812;DHT22;5963;50.184;9.162;2022-10-28T09:00:25;17.30;99.90
11812;DHT22;5963;50.184;9.162;2022-10-28T09:03:07;17.40;99.90
11812;DHT22;5963;50.184;9.162;2022-10-28T09:05:42;17.60;99.90
11812;DHT22;5963;50.184;9.162;2022-10-28T09:08:20;17.90;99.90
11812;DHT22;5963;50.184;9.162;2022-10-28T09:11:00;18.10;99.90
11812;DHT22;5963;50.184;9.162;2022-10-28T09:13:39;18.20;99.90
11812;DHT22;5963;50.184;9.162;2022-10-28T09:16:19;18.20;99.90
11812;DHT22;5963;50.184;9.162;2022-10-28T09:18:51;18.20;99.90
11812;DHT22;5963;50.184;9.162;2022-10-28T09:21:24;18.20;99.90
11812;DHT22;5963;50.184;9.162;2022-10-28T09:23:58;18.20;99.90
11812;DHT22;5963;50.184;9.162;2022-10-28T09:26:42;18.20;99.90
11812;DHT22;5963;50.184;9.162;2022-10-28T09:32:14;18.10;99.90
11812;DHT22;5963;50.184;9.162;2022-10-28T09:34:47;18.00;99.90
11812;DHT22;5963;50.184;9.162;2022-10-28T09:37:20;18.10;99.90
11812;DHT22;5963;50.184;9.162;2022-10-28T09:39:51;18.10;99.90
11812;DHT22;5963;50.184;9.162;2022-10-28T09:42:24;18.10;99.90
11812;DHT22;5963;50.184;9.162;2022-10-28T09:44:55;18.20;99.90
11812;DHT22;5963;50.184;9.162;2022-10-28T09:47:28;18.40;99.90
11812;DHT22;5963;50.184;9.162;2022-10-28T09:50:00;18.60;99.90
11812;DHT22;5963;50.184;9.162;2022-10-28T09:52:35;18.70;99.90
11812;DHT22;5963;50.184;9.162;2022-10-28T09:55:15;18.70;99.90
11812;DHT22;5963;50.184;9.162;2022-10-28T09:57:45;18.90;99.90
11812;DHT22;5963;50.184;9.162;2022-10-28T10:00:14;19.30;99.90
11812;DHT22;5963;50.184;9.162;2022-10-28T10:02:45;19.60;99.90
11812;DHT22;5963;50.184;9.162;2022-10-28T10:05:15;19.70;99.90
11812;DHT22;5963;50.184;9.162;2022-10-28T10:07:47;20.00;99.90
11812;DHT22;5963;50.184;9.162;2022-10-28T10:10:19;20.30;99.90
11812;DHT22;5963;50.184;9.162;2022-10-28T10:12:50;20.50;99.90
11812;DHT22;5963;50.184;9.162;2022-10-28T10:15:27;20.80;99.90
11812;DHT22;5963;50.184;9.162;2022-10-28T10:17:59;21.10;99.90
11812;DHT22;5963;50.184;9.162;2022-10-28T10:20:45;21.30;99.90
11812;DHT22;5963;50.184;9.162;2022-10-28T10:23:27;21.50;99.90
11812;DHT22;5963;50.184;9.162;2022-10-28T10:25:57;21.70;99.90
11812;DHT22;5963;50.184;9.162;2022-10-28T10:28:27;21.80;99.90
11812;DHT22;5963;50.184;9.162;2022-10-28T10:30:56;21.90;99.90
11812;DHT22;5963;50.184;9.162;2022-10-28T10:33:30;22.00;99.90
11812;DHT22;5963;50.184;9.162;2022-10-28T10:36:02;22.00;99.90
11812;DHT22;5963;50.184;9.162;2022-10-28T10:38:31;21.90;99.90
11812;DHT22;5963;50.184;9.162;2022-10-28T10:40:59;21.70;99.90
11812;DHT22;5963;50.184;9.162;2022-10-28T10:43:32;21.60;99.90
11812;DHT22;5963;50.184;9.162;2022-10-28T10:46:03;21.50;99.90
11812;DHT22;5963;50.184;9.162;2022-10-28T10:48:34;21.50;99.90
11812;DHT22;5963;50.184;9.162;2022-10-28T10:51:08;21.50;99.90
11812;DHT22;5963;50.184;9.162;2022-10-28T10:53:39;21.40;99.90
11812;DHT22;5963;50.184;9.162;2022-10-28T10:56:08;21.30;99.90
11812;DHT22;5963;50.184;9.162;2022-10-28T10:58:45;21.40;99.90
11812;DHT22;5963;50.184;9.162;2022-10-28T11:01:18;21.30;99.90
11812;DHT22;5963;50.184;9.162;2022-10-28T11:03:52;21.30;99.90
11812;DHT22;5963;50.184;9.162;2022-10-28T11:06:25;21.30;99.90
11812;DHT22;5963;50.184;9.162;2022-10-28T11:08:55;21.40;99.90
11812;DHT22;5963;50.184;9.162;2022-10-28T11:11:32;21.40;99.90
11812;DHT22;5963;50.184;9.162;2022-10-28T11:14:05;21.60;99.90
11812;DHT22;5963;50.184;9.162;2022-10-28T11:16:46;21.90;99.90
11812;DHT22;5963;50.184;9.162;2022-10-28T11:19:19;22.30;99.90
11812;DHT22;5963;50.184;9.162;2022-10-28T11:21:59;22.60;99.90
11812;DHT22;5963;50.184;9.162;2022-10-28T11:24:43;22.70;99.90
11812;DHT22;5963;50.184;9.162;2022-10-28T11:27:21;22.80;99.90
11812;DHT22;5963;50.184;9.162;2022-10-28T11:29:52;22.80;99.90
11812;DHT22;5963;50.184;9.162;2022-10-28T11:32:34;22.80;99.90
11812;DHT22;5963;50.184;9.162;2022-10-28T11:35:41;23.00;99.90
11812;DHT22;5963;50.184;9.162;2022-10-28T11:38:33;23.20;99.90
11812;DHT22;5963;50.184;9.162;2022-10-28T11:41:13;23.30;99.90
11812;DHT22;5963;50.184;9.162;2022-10-28T11:43:48;23.40;99.90
11812;DHT22;5963;50.184;9.162;2022-10-28T11:46:36;23.60;99.90
11812;DHT22;5963;50.184;9.162;2022-10-28T11:49:51;23.60;99.90
11812;DHT22;5963;50.184;9.162;2022-10-28T11:52:40;23.40;99.90
11812;DHT22;5963;50.184;9.162;2022-10-28T11:55:20;23.30;99.90
11812;DHT22;5963;50.184;9.162;2022-10-28T11:58:00;23.10;99.90
11812;DHT22;5963;50.184;9.162;2022-10-28T12:00:42;23.10;99.90
11812;DHT22;5963;50.184;9.162;2022-10-28T12:03:29;23.00;99.90
11812;DHT22;5963;50.184;9.162;2022-10-28T12:06:09;23.10;99.90
11812;DHT22;5963;50.184;9.162;2022-10-28T12:11:39;23.10;99.90
11812;DHT22;5963;50.184;9.162;2022-10-28T12:14:15;23.40;99.90
11812;DHT22;5963;50.184;9.162;2022-10-28T12:16:50;23.40;99.90
11812;DHT22;5963;50.184;9.162;2022-10-28T12:19:22;23.40;99.90
11812;DHT22;5963;50.184;9.162;2022-10-28T12:21:59;23.30;99.90
11812;DHT22;5963;50.184;9.162;2022-10-28T12:24:35;23.30;99.90
11812;DHT22;5963;50.184;9.162;2022-10-28T12:27:10;23.40;99.90
11812;DHT22;5963;50.184;9.162;2022-10-28T12:29:46;23.40;99.90
11812;DHT22;5963;50.184;9.162;2022-10-28T12:32:19;23.30;99.90
11812;DHT22;5963;50.184;9.162;2022-10-28T12:34:52;23.50;99.90
11812;DHT22;5963;50.184;9.162;2022-10-28T12:37:24;23.50;99.90
11812;DHT22;5963;50.184;9.162;2022-10-28T12:39:59;23.50;99.90
11812;DHT22;5963;50.184;9.162;2022-10-28T12:42:31;23.50;99.90
11812;DHT22;5963;50.184;9.162;2022-10-28T12:45:03;23.50;99.90
11812;DHT22;5963;50.184;9.162;2022-10-28T12:47:37;23.50;99.90
11812;DHT22;5963;50.184;9.162;2022-10-28T12:50:15;23.40;99.90
11812;DHT22;5963;50.184;9.162;2022-10-28T12:52:50;23.60;99.90
11812;DHT22;5963;50.184;9.162;2022-10-28T12:55:31;23.70;99.90
11812;DHT22;5963;50.184;9.162;2022-10-28T12:58:05;23.80;99.90
11812;DHT22;5963;50.184;9.162;2022-10-28T13:00:41;23.90;99.90
11812;DHT22;5963;50.184;9.162;2022-10-28T13:03:12;24.00;99.90
11812;DHT22;5963;50.184;9.162;2022-10-28T13:05:43;24.00;99.90
11812;DHT22;5963;50.184;9.162;2022-10-28T13:08:47;24.00;99.90
11812;DHT22;5963;50.184;9.162;2022-10-28T13:11:37;23.80;99.90
11812;DHT22;5963;50.184;9.162;2022-10-28T13:14:16;23.70;99.90
11812;DHT22;5963;50.184;9.162;2022-10-28T13:17:05;23.60;99.90
11812;DHT22;5963;50.184;9.162;2022-10-28T13:19:53;23.50;99.90
11812;DHT22;5963;50.184;9.162;2022-10-28T13:22:34;23.60;99.90
11812;DHT22;5963;50.184;9.162;2022-10-28T13:25:26;23.80;99.90
11812;DHT22;5963;50.184;9.162;2022-10-28T13:28:00;23.80;99.90
11812;DHT22;5963;50.184;9.162;2022-10-28T13:30:29;23.90;99.90
11812;DHT22;5963;50.184;9.162;2022-10-28T13:33:05;23.90;99.90
11812;DHT22;5963;50.184;9.162;2022-10-28T13:35:33;23.80;99.90
11812;DHT22;5963;50.184;9.162;2022-10-28T13:38:09;23.80;99.90
11812;DHT22;5963;50.184;9.162;2022-10-28T13:41:24;23.80;99.90
11812;DHT22;5963;50.184;9.162;2022-10-28T13:50:20;23.70;99.90
11812;DHT22;5963;50.184;9.162;2022-10-28T13:56:31;23.50;99.90
11812;DHT22;5963;50.184;9.162;2022-10-28T13:59:05;23.40;99.90
11812;DHT22;5963;50.184;9.162;2022-10-28T14:01:53;23.10;99.90
11812;DHT22;5963;50.184;9.162;2022-10-28T14:04:42;22.90;99.90
11812;DHT22;5963;50.184;9.162;2022-10-28T14:07:25;22.80;99.90
11812;DHT22;5963;50.184;9.162;2022-10-28T14:09:57;22.60;99.90
11812;DHT22;5963;50.184;9.162;2022-10-28T14:12:28;22.60;99.90
11812;DHT22;5963;50.184;9.162;2022-10-28T14:15:03;22.50;99.90
11812;DHT22;5963;50.184;9.162;2022-10-28T14:17:37;22.40;99.90
11812;DHT22;5963;50.184;9.162;2022-10-28T14:20:19;22.30;99.90
11812;DHT22;5963;50.184;9.162;2022-10-28T14:22:48;22.50;99.90
11812;DHT22;5963;50.184;9.162;2022-10-28T14:25:58;22.70;99.90
11812;DHT22;5963;50.184;9.162;2022-10-28T14:28:49;22.70;99.90
11812;DHT22;5963;50.184;9.162;2022-10-28T14:31:39;22.70;99.90
11812;DHT22;5963;50.184;9.162;2022-10-28T14:34:40;22.60;99.90
11812;DHT22;5963;50.184;9.162;2022-10-28T14:37:33;22.30;99.90
11812;DHT22;5963;50.184;9.162;2022-10-28T14:40:17;22.20;99.90
11812;DHT22;5963;50.184;9.162;2022-10-28T14:43:12;22.00;99.90
11812;DHT22;5963;50.184;9.162;2022-10-28T14:45:56;21.70;99.90
11812;DHT22;5963;50.184;9.162;2022-10-28T14:48:44;21.90;99.90
11812;DHT22;5963;50.184;9.162;2022-10-28T14:51:15;21.80;99.90
11812;DHT22;5963;50.184;9.162;2022-10-28T14:53:44;21.80;99.90
11812;DHT22;5963;50.184;9.162;2022-10-28T14:56:19;21.80;99.90
11812;DHT22;5963;50.184;9.162;2022-10-28T14:58:56;22.00;99.90
11812;DHT22;5963;50.184;9.162;2022-10-28T15:01:36;21.90;99.90
11812;DHT22;5963;50.184;9.162;2022-10-28T15:04:14;21.70;99.90
11812;DHT22;5963;50.184;9.162;2022-10-28T15:06:43;21.50;99.90
11812;DHT22;5963;50.184;9.162;2022-10-28T15:09:19;21.50;99.90
11812;DHT22;5963;50.184;9.162;2022-10-28T15:11:53;21.50;99.90
11812;DHT22;5963;50.184;9.162;2022-10-28T15:14:28;21.40;99.90
11812;DHT22;5963;50.184;9.162;2022-10-28T15:16:58;21.20;99.90
11812;DHT22;5963;50.184;9.162;2022-10-28T15:19:32;21.10;99.90
11812;DHT22;5963;50.184;9.162;2022-10-28T15:22:03;21.00;99.90
11812;DHT22;5963;50.184;9.162;2022-10-28T15:24:32;21.00;99.90
11812;DHT22;5963;50.184;9.162;2022-10-28T15:27:03;20.90;99.90
11812;DHT22;5963;50.184;9.162;2022-10-28T15:29:35;20.80;99.90
11812;DHT22;5963;50.184;9.162;2022-10-28T15:32:23;20.70;99.90
11812;DHT22;5963;50.184;9.162;2022-10-28T15:38:49;20.70;99.90
11812;DHT22;5963;50.184;9.162;2022-10-28T15:41:58;20.70;99.90
11812;DHT22;5963;50.184;9.162;2022-10-28T15:45:15;20.60;99.90
11812;DHT22;5963;50.184;9.162;2022-10-28T15:48:00;20.50;99.90
11812;DHT22;5963;50.184;9.162;2022-10-28T15:51:15;20.40;99.90
11812;DHT22;5963;50.184;9.162;2022-10-28T15:54:28;20.30;99.90
11812;DHT22;5963;50.184;9.162;2022-10-28T15:57:01;20.10;99.90
11812;DHT22;5963;50.184;9.162;2022-10-28T15:59:43;20.00;99.90
11812;DHT22;5963;50.184;9.162;2022-10-28T16:02:42;19.90;99.90
11812;DHT22;5963;50.184;9.162;2022-10-28T16:08:29;19.70;99.90
11812;DHT22;5963;50.184;9.162;2022-10-28T16:11:16;19.60;99.90
11812;DHT22;5963;50.184;9.162;2022-10-28T16:17:43;19.40;99.90
11812;DHT22;5963;50.184;9.162;2022-10-28T16:20:26;19.40;99.90
11812;DHT22;5963;50.184;9.162;2022-10-28T16:23:02;19.30;99.90
11812;DHT22;5963;50.184;9.162;2022-10-28T16:25:41;19.30;99.90
11812;DHT22;5963;50.184;9.162;2022-10-28T16:28:19;19.20;99.90
11812;DHT22;5963;50.184;9.162;2022-10-28T16:31:07;19.20;99.90
11812;DHT22;5963;50.184;9.162;2022-10-28T16:34:07;19.20;99.90
11812;DHT22;5963;50.184;9.162;2022-10-28T16:36:57;19.10;99.90
11812;DHT22;5963;50.184;9.162;2022-10-28T16:39:29;19.10;99.90
11812;DHT22;5963;50.184;9.162;2022-10-28T16:41:58;19.00;99.90
11812;DHT22;5963;50.184;9.162;2022-10-28T16:44:28;19.00;99.90
11812;DHT22;5963;50.184;9.162;2022-10-28T16:47:00;18.90;99.90
11812;DHT22;5963;50.184;9.162;2022-10-28T16:50:11;18.80;99.90
11812;DHT22;5963;50.184;9.162;2022-10-28T16:52:36;18.80;99.90
11812;DHT22;5963;50.184;9.162;2022-10-28T16:55:24;18.70;99.90
11812;DHT22;5963;50.184;9.162;2022-10-28T16:58:02;18.60;99.90
11812;DHT22;5963;50.184;9.162;2022-10-28T17:00:36;18.60;99.90